createdAt,value
2022-10-17T00:01:58.608Z,99.90
2022-10-17T00:04:25.294Z,99.90
2022-10-17T00:06:51.985Z,99.90
2022-10-17T00:09:18.632Z,99.90
2022-10-17T00:11:45.304Z,99.90
2022-10-17T00:14:12.044Z,99.90
2022-10-17T00:16:38.847Z,99.90
2022-10-17T00:19:06.776Z,99.90
2022-10-17T00:21:33.755Z,99.90
2022-10-17T00:24:01.074Z,99.90
2022-10-17T00:26:29.654Z,99.90
2022-10-17T00:28:56.997Z,99.90
2022-10-17T00:31:24.566Z,99.90
2022-10-17T00:33:51.446Z,99.90
2022-10-17T00:36:22.471Z,99.90
2022-10-17T00:38:51.520Z,99.90
2022-10-17T00:41:19.431Z,99.90
2022-10-17T00:43:50.246Z,99.90
2022-10-17T00:46:17.053Z,99.90
2022-10-17T00:48:44.151Z,99.90
2022-10-17T00:51:11.050Z,99.90
2022-10-17T00:53:39.330Z,99.90
2022-10-17T00:56:06.322Z,99.90
2022-10-17T00:58:32.991Z,99.90
2022-10-17T01:00:59.749Z,99.90
2022-10-17T01:03:26.557Z,99.90
2022-10-17T01:05:53.309Z,99.90
2022-10-17T01:08:20.158Z,99.90
2022-10-17T01:10:54.136Z,99.90
2022-10-17T01:13:53.314Z,99.90
2022-10-17T01:16:25.933Z,99.90
2022-10-17T01:19:10.975Z,99.90
2022-10-17T01:22:03.684Z,99.90
2022-10-17T01:24:48.316Z,99.90
2022-10-17T01:27:33.800Z,99.90
2022-10-17T01:30:00.492Z,99.90
2022-10-17T01:32:48.677Z,99.90
2022-10-17T01:35:21.122Z,99.90
2022-10-17T01:38:11.380Z,99.90
2022-10-17T01:40:50.884Z,99.90
2022-10-17T01:43:32.605Z,99.90
2022-10-17T01:46:02.732Z,99.90
2022-10-17T01:48:35.940Z,99.90
2022-10-17T01:51:29.010Z,99.90
2022-10-17T01:54:04.251Z,99.90
2022-10-17T01:56:32.722Z,99.90
2022-10-17T01:59:29.009Z,99.90
2022-10-17T02:01:57.189Z,99.90
2022-10-17T02:04:24.478Z,99.90
2022-10-17T02:06:51.111Z,99.90
2022-10-17T02:09:19.537Z,99.90
2022-10-17T02:11:51.960Z,99.90
2022-10-17T02:14:51.327Z,99.90
2022-10-17T02:17:23.910Z,99.90
2022-10-17T02:20:10.986Z,99.90
2022-10-17T02:22:37.632Z,99.90
2022-10-17T02:25:06.300Z,99.90
2022-10-17T02:27:52.691Z,99.90
2022-10-17T02:30:25.155Z,99.90
2022-10-17T02:33:00.769Z,99.90
2022-10-17T02:35:30.359Z,99.90
2022-10-17T02:37:57.805Z,99.90
2022-10-17T02:40:24.652Z,99.90
2022-10-17T02:42:54.048Z,99.90
2022-10-17T02:45:21.512Z,99.90
2022-10-17T02:47:48.106Z,99.90
2022-10-17T02:50:15.203Z,99.90
2022-10-17T02:52:47.859Z,99.90
2022-10-17T02:55:35.557Z,99.90
2022-10-17T02:58:08.908Z,99.90
2022-10-17T03:00:38.987Z,99.90
2022-10-17T03:03:19.063Z,99.90
2022-10-17T03:05:45.848Z,99.90
2022-10-17T03:08:12.515Z,99.90
2022-10-17T03:10:39.217Z,99.90
2022-10-17T03:13:06.091Z,99.90
2022-10-17T03:15:37.213Z,99.90
2022-10-17T03:18:04.000Z,99.90
2022-10-17T03:20:30.736Z,99.90
2022-10-17T03:22:57.436Z,99.90
2022-10-17T03:25:24.260Z,99.90
2022-10-17T03:27:51.126Z,99.90
2022-10-17T03:30:18.139Z,99.90
2022-10-17T03:32:45.061Z,99.90
2022-10-17T03:35:14.970Z,99.90
2022-10-17T03:37:44.903Z,99.90
2022-10-17T03:40:18.220Z,99.90
2022-10-17T03:42:48.476Z,99.90
2022-10-17T03:45:18.477Z,99.90
2022-10-17T03:47:48.222Z,99.90
2022-10-17T03:50:19.518Z,99.90
2022-10-17T03:52:50.737Z,99.90
2022-10-17T03:55:25.310Z,99.90
2022-10-17T03:58:00.814Z,99.90
2022-10-17T04:00:29.035Z,99.90
2022-10-17T04:02:58.601Z,99.90
2022-10-17T04:05:26.852Z,99.90
2022-10-17T04:07:53.747Z,99.90
2022-10-17T04:10:28.126Z,99.90
2022-10-17T04:12:55.145Z,99.90
2022-10-17T04:15:22.386Z,99.90
2022-10-17T04:17:49.482Z,99.90
2022-10-17T04:20:19.438Z,99.90
2022-10-17T04:22:46.630Z,99.90
2022-10-17T04:25:14.787Z,99.90
2022-10-17T04:27:45.647Z,99.90
2022-10-17T04:30:13.583Z,99.90
2022-10-17T04:32:41.425Z,99.90
2022-10-17T04:35:20.121Z,99.90
2022-10-17T04:37:52.010Z,99.90
2022-10-17T04:40:32.854Z,99.90
2022-10-17T04:43:00.184Z,99.90
2022-10-17T04:45:34.291Z,99.90
2022-10-17T04:48:03.474Z,99.90
2022-10-17T04:50:30.151Z,99.90
2022-10-17T04:53:17.484Z,99.90
2022-10-17T04:55:44.499Z,99.90
2022-10-17T04:58:11.306Z,99.90
2022-10-17T05:00:38.172Z,99.90
2022-10-17T05:03:20.508Z,99.90
2022-10-17T05:05:47.624Z,99.90
2022-10-17T05:08:14.627Z,99.90
2022-10-17T05:10:43.471Z,99.90
2022-10-17T05:13:10.794Z,99.90
2022-10-17T05:15:37.823Z,99.90
2022-10-17T05:18:05.022Z,99.90
2022-10-17T05:20:31.845Z,99.90
2022-10-17T05:23:00.237Z,99.90
2022-10-17T05:25:32.100Z,99.90
2022-10-17T05:27:58.954Z,99.90
2022-10-17T05:30:26.420Z,99.90
2022-10-17T05:33:00.882Z,99.90
2022-10-17T05:35:31.130Z,99.90
2022-10-17T05:37:58.514Z,99.90
2022-10-17T05:40:28.819Z,99.90
2022-10-17T05:42:57.461Z,99.90
2022-10-17T05:45:33.229Z,99.90
2022-10-17T05:48:05.172Z,99.90
2022-10-17T05:50:39.539Z,99.90
2022-10-17T05:53:14.050Z,99.90
2022-10-17T05:55:45.992Z,99.90
2022-10-17T05:58:22.493Z,99.90
2022-10-17T06:01:09.347Z,99.90
2022-10-17T06:03:47.884Z,99.90
2022-10-17T06:06:26.723Z,99.90
2022-10-17T06:08:56.834Z,99.90
2022-10-17T06:11:28.793Z,99.90
2022-10-17T06:13:59.033Z,99.90
2022-10-17T06:16:31.686Z,99.90
2022-10-17T06:18:59.589Z,99.90
2022-10-17T06:21:27.800Z,99.90
2022-10-17T06:24:06.639Z,99.90
2022-10-17T06:26:36.235Z,99.90
2022-10-17T06:29:05.864Z,99.90
2022-10-17T06:31:38.473Z,99.90
2022-10-17T06:34:05.682Z,99.90
2022-10-17T06:36:32.495Z,99.90
2022-10-17T06:39:00.706Z,99.90
2022-10-17T06:41:36.896Z,99.90
2022-10-17T06:44:11.080Z,99.90
2022-10-17T06:46:58.204Z,99.90
2022-10-17T06:49:25.247Z,99.90
2022-10-17T06:51:58.998Z,99.90
2022-10-17T06:54:34.088Z,99.90
2022-10-17T06:57:19.442Z,99.90
2022-10-17T07:00:02.300Z,99.90
2022-10-17T07:02:36.832Z,99.90
2022-10-17T07:05:08.060Z,99.90
2022-10-17T07:07:36.838Z,99.90
2022-10-17T07:10:08.674Z,99.90
2022-10-17T07:12:37.239Z,99.90
2022-10-17T07:15:04.906Z,99.90
2022-10-17T07:17:31.976Z,99.90
2022-10-17T07:19:59.100Z,99.90
2022-10-17T07:22:26.234Z,99.90
2022-10-17T07:24:57.169Z,99.90
2022-10-17T07:27:30.764Z,99.90
2022-10-17T07:29:58.135Z,99.90
2022-10-17T07:32:53.011Z,99.90
2022-10-17T07:35:19.992Z,99.90
2022-10-17T07:37:46.710Z,99.90
2022-10-17T07:40:15.734Z,99.90
2022-10-17T07:42:43.196Z,99.90
2022-10-17T07:45:11.098Z,99.90
2022-10-17T07:47:40.328Z,99.90
2022-10-17T07:50:09.443Z,99.90
2022-10-17T07:52:36.297Z,99.90
2022-10-17T07:55:03.071Z,99.90
2022-10-17T07:57:29.718Z,99.90
2022-10-17T07:59:56.621Z,99.90
2022-10-17T08:02:24.608Z,99.90
2022-10-17T08:04:52.158Z,99.90
2022-10-17T08:07:24.376Z,99.90
2022-10-17T08:09:55.671Z,99.90
2022-10-17T08:12:26.497Z,99.90
2022-10-17T08:14:56.024Z,99.90
2022-10-17T08:17:23.363Z,99.90
2022-10-17T08:19:50.111Z,99.90
2022-10-17T08:22:16.830Z,99.90
2022-10-17T08:24:44.497Z,99.90
2022-10-17T08:27:13.379Z,99.90
2022-10-17T08:29:40.678Z,99.90
2022-10-17T08:32:09.972Z,99.90
2022-10-17T08:34:36.959Z,99.90
2022-10-17T08:37:03.979Z,99.90
2022-10-17T08:39:30.711Z,99.90
2022-10-17T08:42:26.660Z,99.90
2022-10-17T08:45:11.489Z,99.90
2022-10-17T08:47:40.733Z,99.90
2022-10-17T08:50:12.748Z,99.90
2022-10-17T08:52:48.608Z,99.90
2022-10-17T08:55:27.645Z,99.90
2022-10-17T08:57:54.345Z,99.90
2022-10-17T09:00:23.238Z,99.90
2022-10-17T09:02:57.755Z,99.90
2022-10-17T09:05:33.679Z,99.90
2022-10-17T09:08:06.994Z,99.90
2022-10-17T09:10:52.322Z,99.90
2022-10-17T09:13:37.945Z,99.90
2022-10-17T09:16:11.871Z,99.90
2022-10-17T09:18:55.198Z,99.90
2022-10-17T09:21:22.047Z,99.90
2022-10-17T09:23:56.083Z,99.90
2022-10-17T09:26:30.729Z,99.90
2022-10-17T09:28:59.365Z,99.90
2022-10-17T09:31:29.089Z,99.90
2022-10-17T09:33:56.971Z,99.90
2022-10-17T09:36:25.919Z,99.90
2022-10-17T09:38:56.932Z,99.90
2022-10-17T09:41:44.180Z,99.90
2022-10-17T09:44:30.507Z,99.90
2022-10-17T09:46:57.429Z,99.90
2022-10-17T09:49:43.482Z,99.90
2022-10-17T09:52:28.690Z,99.90
2022-10-17T09:54:59.199Z,99.90
2022-10-17T09:57:26.521Z,99.90
2022-10-17T09:59:58.460Z,99.90
2022-10-17T10:02:26.549Z,99.90
2022-10-17T10:05:06.416Z,99.90
2022-10-17T10:07:35.561Z,99.90
2022-10-17T10:10:03.534Z,99.90
2022-10-17T10:12:32.207Z,99.00
2022-10-17T10:14:59.616Z,97.40
2022-10-17T10:17:35.604Z,96.20
2022-10-17T10:20:03.903Z,95.00
2022-10-17T10:22:30.896Z,93.70
2022-10-17T10:25:07.169Z,93.20
2022-10-17T10:27:34.443Z,92.70
2022-10-17T10:30:01.287Z,92.30
2022-10-17T10:32:35.784Z,93.00
2022-10-17T10:35:05.397Z,92.30
2022-10-17T10:37:43.542Z,91.90
2022-10-17T10:40:24.337Z,91.30
2022-10-17T10:42:51.822Z,91.80
2022-10-17T10:45:49.482Z,93.10
2022-10-17T10:48:11.951Z,93.80
2022-10-17T10:50:45.034Z,94.80
2022-10-17T10:53:34.986Z,95.40
2022-10-17T10:56:14.921Z,94.10
2022-10-17T10:58:47.759Z,93.50
2022-10-17T11:01:21.969Z,92.00
2022-10-17T11:04:03.915Z,90.60
2022-10-17T11:06:34.244Z,88.40
2022-10-17T11:09:00.885Z,86.30
2022-10-17T11:11:29.608Z,85.20
2022-10-17T11:14:13.809Z,84.70
2022-10-17T11:16:49.765Z,82.80
2022-10-17T11:19:33.921Z,82.30
2022-10-17T11:22:06.733Z,81.30
2022-10-17T11:24:45.757Z,80.50
2022-10-17T11:27:12.483Z,79.70
2022-10-17T11:29:40.329Z,78.40
2022-10-17T11:32:11.062Z,79.30
2022-10-17T11:34:41.079Z,80.70
2022-10-17T11:37:13.787Z,80.60
2022-10-17T11:39:47.382Z,78.60
2022-10-17T11:42:17.436Z,79.40
2022-10-17T11:44:44.863Z,79.70
2022-10-17T11:47:11.549Z,80.70
2022-10-17T11:49:42.274Z,80.00
2022-10-17T11:52:22.806Z,78.30
2022-10-17T11:55:01.390Z,79.00
2022-10-17T11:57:30.928Z,78.90
2022-10-17T11:59:57.565Z,79.00
2022-10-17T12:02:24.176Z,79.40
2022-10-17T12:04:50.948Z,78.60
2022-10-17T12:07:22.255Z,78.60
2022-10-17T12:09:56.933Z,79.20
2022-10-17T12:12:28.566Z,77.60
2022-10-17T12:15:15.375Z,77.40
2022-10-17T12:17:43.800Z,78.70
2022-10-17T12:20:24.066Z,77.70
2022-10-17T12:22:52.012Z,77.20
2022-10-17T12:25:18.693Z,78.10
2022-10-17T12:27:47.284Z,79.40
2022-10-17T12:30:24.506Z,80.50
2022-10-17T12:33:06.147Z,80.50
2022-10-17T12:35:34.852Z,80.00
2022-10-17T12:38:15.426Z,77.10
2022-10-17T12:40:46.303Z,77.60
2022-10-17T12:43:18.257Z,79.10
2022-10-17T12:45:44.933Z,78.80
2022-10-17T12:48:11.511Z,78.90
2022-10-17T12:51:12.177Z,79.40
2022-10-17T12:53:49.623Z,80.20
2022-10-17T12:56:17.302Z,80.20
2022-10-17T12:58:48.905Z,79.70
2022-10-17T13:01:24.615Z,79.00
2022-10-17T13:03:52.928Z,79.50
2022-10-17T13:06:21.354Z,78.40
2022-10-17T13:08:54.860Z,78.60
2022-10-17T13:11:27.488Z,77.20
2022-10-17T13:13:55.619Z,76.50
2022-10-17T13:16:28.420Z,76.10
2022-10-17T13:18:55.271Z,76.70
2022-10-17T13:21:22.154Z,76.30
2022-10-17T13:23:51.063Z,75.60
2022-10-17T13:26:21.704Z,74.80
2022-10-17T13:29:05.020Z,74.30
2022-10-17T13:31:36.263Z,73.10
2022-10-17T13:34:04.213Z,73.70
2022-10-17T13:36:31.393Z,75.20
2022-10-17T13:38:59.781Z,76.30
2022-10-17T13:41:36.812Z,77.70
2022-10-17T13:44:07.864Z,77.00
2022-10-17T13:46:38.369Z,76.90
2022-10-17T13:49:29.436Z,77.20
2022-10-17T13:51:56.368Z,75.90
2022-10-17T13:54:41.864Z,74.90
2022-10-17T13:57:19.744Z,74.10
2022-10-17T13:59:50.427Z,76.00
2022-10-17T14:02:18.931Z,75.80
2022-10-17T14:05:15.181Z,75.70
2022-10-17T14:08:05.480Z,77.80
2022-10-17T14:10:32.859Z,75.60
2022-10-17T14:13:00.004Z,76.40
2022-10-17T14:15:31.389Z,75.60
2022-10-17T14:18:06.710Z,75.30
2022-10-17T14:21:19.432Z,75.80
2022-10-17T14:23:32.764Z,75.10
2022-10-17T14:26:10.718Z,75.10
2022-10-17T14:28:38.837Z,74.40
2022-10-17T14:31:22.457Z,75.00
2022-10-17T14:33:51.058Z,74.90
2022-10-17T14:36:18.544Z,74.70
2022-10-17T14:38:47.113Z,74.60
2022-10-17T14:41:41.329Z,74.90
2022-10-17T14:44:04.678Z,75.30
2022-10-17T14:46:31.399Z,76.10
2022-10-17T14:49:08.407Z,76.90
2022-10-17T14:51:44.843Z,77.00
2022-10-17T14:54:26.439Z,78.70
2022-10-17T14:56:53.853Z,80.80
2022-10-17T14:59:51.399Z,83.70
2022-10-17T15:02:09.706Z,86.50
2022-10-17T15:04:36.294Z,88.00
2022-10-17T15:07:02.902Z,90.10
2022-10-17T15:09:29.617Z,90.90
2022-10-17T15:11:59.737Z,91.90
2022-10-17T15:14:26.706Z,92.80
2022-10-17T15:16:53.414Z,94.00
2022-10-17T15:19:20.046Z,95.00
2022-10-17T15:21:47.452Z,95.90
2022-10-17T15:24:15.693Z,97.20
2022-10-17T15:26:42.443Z,98.50
2022-10-17T15:29:10.413Z,99.60
2022-10-17T15:31:37.148Z,99.90
2022-10-17T15:34:03.815Z,99.90
2022-10-17T15:36:43.781Z,99.90
2022-10-17T15:39:33.931Z,99.90
2022-10-17T15:42:00.681Z,99.90
2022-10-17T15:44:28.640Z,99.90
2022-10-17T15:46:55.535Z,99.90
2022-10-17T15:49:22.188Z,99.90
2022-10-17T15:51:54.341Z,99.90
2022-10-17T15:54:21.873Z,99.90
2022-10-17T15:56:52.353Z,99.90
2022-10-17T15:59:21.573Z,99.90
2022-10-17T16:01:48.651Z,99.90
2022-10-17T16:04:15.879Z,99.90
2022-10-17T16:06:43.031Z,99.90
2022-10-17T16:09:10.023Z,99.90
2022-10-17T16:11:41.533Z,99.90
2022-10-17T16:14:16.847Z,99.90
2022-10-17T16:16:43.619Z,99.90
2022-10-17T16:19:10.267Z,99.90
2022-10-17T16:21:38.772Z,99.90
2022-10-17T16:24:05.878Z,99.90
2022-10-17T16:26:32.724Z,99.90
2022-10-17T16:29:02.690Z,99.90
2022-10-17T16:31:36.698Z,99.90
2022-10-17T16:34:04.130Z,99.90
2022-10-17T16:36:30.762Z,99.90
2022-10-17T16:38:57.459Z,99.90
2022-10-17T16:41:32.013Z,99.90
2022-10-17T16:43:59.579Z,99.90
2022-10-17T16:46:27.312Z,99.90
2022-10-17T16:48:54.273Z,99.90
2022-10-17T16:51:21.218Z,99.90
2022-10-17T16:53:50.110Z,99.90
2022-10-17T16:56:18.154Z,99.90
2022-10-17T16:58:44.876Z,99.90
2022-10-17T17:01:13.159Z,99.90
2022-10-17T17:03:40.954Z,99.90
2022-10-17T17:06:08.798Z,99.90
2022-10-17T17:08:38.447Z,99.90
2022-10-17T17:11:09.175Z,99.90
2022-10-17T17:13:35.823Z,99.90
2022-10-17T17:16:06.561Z,99.90
2022-10-17T17:18:33.440Z,99.90
2022-10-17T17:21:04.125Z,99.90
2022-10-17T17:23:30.940Z,99.90
2022-10-17T17:26:01.376Z,99.90
2022-10-17T17:28:28.394Z,99.90
2022-10-17T17:30:55.362Z,99.90
2022-10-17T17:33:25.059Z,99.90
2022-10-17T17:35:55.847Z,99.90
2022-10-17T17:38:22.595Z,99.90
2022-10-17T17:40:50.868Z,99.90
2022-10-17T17:43:18.370Z,99.90
2022-10-17T17:45:45.227Z,99.90
2022-10-17T17:48:12.405Z,99.90
2022-10-17T17:50:40.200Z,99.90
2022-10-17T17:53:07.528Z,99.90
2022-10-17T17:55:34.332Z,99.90
2022-10-17T17:58:00.975Z,99.90
2022-10-17T18:00:28.195Z,99.90
2022-10-17T18:02:55.917Z,99.90
2022-10-17T18:05:22.683Z,99.90
2022-10-17T18:07:49.319Z,99.90
2022-10-17T18:10:25.231Z,99.90
2022-10-17T18:12:52.146Z,99.90
2022-10-17T18:15:18.839Z,99.90
2022-10-17T18:17:45.661Z,99.90
2022-10-17T18:20:12.470Z,99.90
2022-10-17T18:22:39.171Z,99.90
2022-10-17T18:25:06.594Z,99.90
2022-10-17T18:27:33.256Z,99.90
2022-10-17T18:29:59.874Z,99.90
2022-10-17T18:32:26.516Z,99.90
2022-10-17T18:34:53.211Z,99.90
2022-10-17T18:37:19.920Z,99.90
2022-10-17T18:39:49.183Z,99.90
2022-10-17T18:42:15.847Z,99.90
2022-10-17T18:44:42.434Z,99.90
2022-10-17T18:47:09.111Z,99.90
2022-10-17T18:49:36.019Z,99.90
2022-10-17T18:52:02.699Z,99.90
2022-10-17T18:54:32.123Z,99.90
2022-10-17T18:56:59.247Z,99.90
2022-10-17T18:59:25.880Z,99.90
2022-10-17T19:01:52.948Z,99.90
2022-10-17T19:04:19.663Z,99.90
2022-10-17T19:06:46.406Z,99.90
2022-10-17T19:09:13.786Z,99.90
2022-10-17T19:11:40.515Z,99.90
2022-10-17T19:14:13.023Z,99.90
2022-10-17T19:16:41.927Z,99.90
2022-10-17T19:19:16.488Z,99.90
2022-10-17T19:21:43.178Z,99.90
2022-10-17T19:24:14.818Z,99.90
2022-10-17T19:26:42.287Z,99.90
2022-10-17T19:29:09.506Z,99.90
2022-10-17T19:31:36.213Z,99.90
2022-10-17T19:34:03.243Z,99.90
2022-10-17T19:36:33.377Z,99.90
2022-10-17T19:39:01.778Z,99.90
2022-10-17T19:41:28.496Z,99.90
2022-10-17T19:43:55.359Z,99.90
2022-10-17T19:46:22.855Z,99.90
2022-10-17T19:48:50.055Z,99.90
2022-10-17T19:51:17.421Z,99.90
2022-10-17T19:53:44.619Z,99.90
2022-10-17T19:56:11.892Z,99.90
2022-10-17T19:58:45.020Z,99.90
2022-10-17T20:01:19.062Z,99.90
2022-10-17T20:03:46.151Z,99.90
2022-10-17T20:06:12.870Z,99.90
2022-10-17T20:08:39.903Z,99.90
2022-10-17T20:11:08.072Z,99.90
2022-10-17T20:13:35.324Z,99.90
2022-10-17T20:16:02.372Z,99.90
2022-10-17T20:18:29.067Z,99.90
2022-10-17T20:20:55.812Z,99.90
2022-10-17T20:23:22.924Z,99.90
2022-10-17T20:26:13.354Z,99.90
2022-10-17T20:29:43.558Z,99.90
2022-10-17T20:32:10.228Z,99.90
2022-10-17T20:34:37.241Z,99.90
2022-10-17T20:37:04.042Z,99.90
2022-10-17T20:39:30.943Z,99.90
2022-10-17T20:41:57.664Z,99.90
2022-10-17T20:44:24.379Z,99.90
2022-10-17T20:47:01.849Z,99.90
2022-10-17T20:49:29.916Z,99.90
2022-10-17T20:51:57.038Z,99.90
2022-10-17T20:54:23.927Z,99.90
2022-10-17T20:56:50.831Z,99.90
2022-10-17T20:59:19.494Z,99.90
2022-10-17T21:01:47.548Z,99.90
2022-10-17T21:04:44.930Z,99.90
2022-10-17T21:07:02.669Z,99.90
2022-10-17T21:09:30.117Z,99.90
2022-10-17T21:11:57.327Z,99.90
2022-10-17T21:14:25.177Z,99.90
2022-10-17T21:16:52.673Z,99.90
2022-10-17T21:19:23.701Z,99.90
2022-10-17T21:21:50.784Z,99.90
2022-10-17T21:24:19.114Z,99.90
2022-10-17T21:26:47.358Z,99.90
2022-10-17T21:29:16.954Z,99.90
2022-10-17T21:31:45.019Z,99.90
2022-10-17T21:34:26.442Z,99.90
2022-10-17T21:36:53.462Z,99.90
2022-10-17T21:39:21.726Z,99.90
2022-10-17T21:41:48.567Z,99.90
2022-10-17T21:44:16.672Z,99.90
2022-10-17T21:46:45.197Z,99.90
2022-10-17T21:49:13.917Z,99.90
2022-10-17T21:51:41.234Z,99.90
2022-10-17T21:54:08.343Z,99.90
2022-10-17T21:56:36.476Z,99.90
2022-10-17T21:59:04.831Z,99.90
2022-10-17T22:01:34.996Z,99.90
2022-10-17T22:04:04.085Z,99.90
2022-10-17T22:06:39.622Z,99.90
2022-10-17T22:09:11.484Z,99.90
2022-10-17T22:11:38.660Z,99.90
2022-10-17T22:14:14.492Z,99.90
2022-10-17T22:16:41.974Z,99.90
2022-10-17T22:19:10.864Z,99.90
2022-10-17T22:21:37.708Z,99.90
2022-10-17T22:24:08.598Z,99.90
2022-10-17T22:26:36.760Z,99.90
2022-10-17T22:29:06.457Z,99.90
2022-10-17T22:31:33.927Z,99.90
2022-10-17T22:34:00.676Z,99.90
2022-10-17T22:36:27.531Z,99.90
2022-10-17T22:38:54.481Z,99.90
2022-10-17T22:41:21.750Z,99.90
2022-10-17T22:43:48.561Z,99.90
2022-10-17T22:46:18.594Z,99.90
2022-10-17T22:48:46.005Z,99.90
2022-10-17T22:51:13.277Z,99.90
2022-10-17T22:53:40.441Z,99.90
2022-10-17T22:56:14.517Z,99.90
2022-10-17T22:58:41.901Z,99.90
2022-10-17T23:01:13.146Z,99.90
2022-10-17T23:03:39.965Z,99.90
2022-10-17T23:06:06.703Z,99.90
2022-10-17T23:08:33.532Z,99.90
2022-10-17T23:11:00.969Z,99.90
2022-10-17T23:13:27.722Z,99.90
2022-10-17T23:15:56.460Z,99.90
2022-10-17T23:18:24.913Z,99.90
2022-10-17T23:20:52.299Z,99.90
2022-10-17T23:23:19.505Z,99.90
2022-10-17T23:25:46.521Z,99.90
2022-10-17T23:28:13.663Z,99.90
2022-10-17T23:30:40.562Z,99.90
2022-10-17T23:33:07.481Z,99.90
2022-10-17T23:35:35.458Z,99.90
2022-10-17T23:38:02.216Z,99.90
2022-10-17T23:40:29.194Z,99.90
2022-10-17T23:42:55.934Z,99.90
2022-10-17T23:45:22.688Z,99.90
2022-10-17T23:47:49.507Z,99.90
2022-10-17T23:50:16.415Z,99.90
2022-10-17T23:52:43.336Z,99.90
2022-10-17T23:55:10.595Z,99.90
2022-10-17T23:57:37.476Z,99.90
